createdAt,value
2022-10-24T00:01:16.109Z,10.06
2022-10-24T00:03:43.118Z,10.03
2022-10-24T00:06:11.848Z,9.93
2022-10-24T00:08:40.838Z,9.89
2022-10-24T00:11:15.605Z,9.80
2022-10-24T00:13:43.575Z,9.82
2022-10-24T00:16:11.799Z,9.80
2022-10-24T00:18:38.699Z,9.75
2022-10-24T00:21:06.299Z,9.60
2022-10-24T00:23:33.262Z,9.69
2022-10-24T00:26:04.430Z,9.62
2022-10-24T00:28:33.460Z,9.67
2022-10-24T00:31:01.062Z,9.65
2022-10-24T00:33:28.202Z,9.64
2022-10-24T00:35:55.175Z,9.54
2022-10-24T00:38:22.196Z,9.60
2022-10-24T00:40:49.185Z,9.59
2022-10-24T00:43:20.525Z,9.57
2022-10-24T00:45:57.516Z,9.48
2022-10-24T00:48:30.578Z,9.47
2022-10-24T00:51:01.880Z,9.41
2022-10-24T00:53:32.013Z,9.41
2022-10-24T00:56:02.752Z,9.33
2022-10-24T00:58:32.692Z,9.30
2022-10-24T01:01:00.021Z,9.23
2022-10-24T01:03:27.530Z,9.11
2022-10-24T01:06:11.406Z,9.14
2022-10-24T01:09:18.411Z,8.91
2022-10-24T01:12:11.252Z,8.90
2022-10-24T01:14:53.117Z,8.93
2022-10-24T01:17:43.429Z,8.88
2022-10-24T01:20:42.978Z,9.00
2022-10-24T01:23:17.808Z,9.00
2022-10-24T01:25:52.040Z,9.02
2022-10-24T01:28:27.668Z,8.98
2022-10-24T01:31:08.030Z,8.98
2022-10-24T01:33:42.223Z,9.03
2022-10-24T01:36:30.947Z,9.03
2022-10-24T01:39:02.498Z,8.91
2022-10-24T01:41:31.462Z,8.87
2022-10-24T01:44:08.530Z,9.02
2022-10-24T01:46:40.253Z,8.94
2022-10-24T01:49:14.739Z,8.92
2022-10-24T01:51:42.698Z,8.92
2022-10-24T01:54:10.943Z,8.91
2022-10-24T01:56:37.859Z,8.92
2022-10-24T01:59:28.602Z,8.96
2022-10-24T02:01:56.907Z,8.94
2022-10-24T02:04:27.053Z,8.93
2022-10-24T02:06:56.564Z,8.88
2022-10-24T02:09:24.705Z,8.82
2022-10-24T02:11:53.746Z,8.77
2022-10-24T02:14:49.220Z,8.85
2022-10-24T02:17:17.298Z,8.85
2022-10-24T02:19:45.187Z,8.84
2022-10-24T02:22:28.184Z,8.85
2022-10-24T02:25:03.734Z,8.87
2022-10-24T02:27:33.886Z,8.86
2022-10-24T02:30:09.561Z,8.85
2022-10-24T02:32:41.249Z,8.78
2022-10-24T02:35:10.170Z,8.74
2022-10-24T02:37:43.132Z,8.72
2022-10-24T02:40:13.781Z,8.80
2022-10-24T02:42:42.478Z,8.75
2022-10-24T02:45:10.824Z,8.69
2022-10-24T02:47:41.781Z,8.59
2022-10-24T02:50:09.528Z,8.50
2022-10-24T02:52:38.621Z,8.48
2022-10-24T02:55:06.726Z,8.45
2022-10-24T02:57:33.718Z,8.40
2022-10-24T03:00:00.726Z,8.30
2022-10-24T03:02:27.960Z,8.31
2022-10-24T03:04:55.068Z,8.28
2022-10-24T03:07:22.028Z,8.25
2022-10-24T03:09:49.490Z,8.23
2022-10-24T03:12:17.919Z,8.22
2022-10-24T03:14:45.313Z,8.11
2022-10-24T03:17:12.198Z,8.14
2022-10-24T03:19:39.151Z,8.19
2022-10-24T03:22:06.104Z,8.18
2022-10-24T03:24:43.803Z,8.24
2022-10-24T03:27:11.976Z,8.22
2022-10-24T03:29:38.837Z,8.21
2022-10-24T03:32:06.553Z,8.27
2022-10-24T03:34:33.695Z,8.28
2022-10-24T03:37:00.944Z,8.20
2022-10-24T03:39:27.772Z,8.14
2022-10-24T03:41:54.741Z,8.11
2022-10-24T03:44:21.665Z,8.07
2022-10-24T03:46:48.557Z,8.07
2022-10-24T03:49:15.360Z,8.08
2022-10-24T03:51:42.293Z,8.10
2022-10-24T03:54:09.598Z,8.11
2022-10-24T03:56:36.763Z,8.08
2022-10-24T03:59:03.613Z,8.08
2022-10-24T04:01:30.653Z,8.04
2022-10-24T04:03:57.764Z,8.00
2022-10-24T04:06:24.728Z,8.01
2022-10-24T04:08:51.562Z,7.99
2022-10-24T04:11:18.587Z,8.00
2022-10-24T04:13:45.613Z,7.93
2022-10-24T04:16:12.508Z,7.88
2022-10-24T04:18:39.314Z,7.89
2022-10-24T04:21:06.787Z,7.87
2022-10-24T04:23:36.987Z,7.81
2022-10-24T04:26:04.463Z,7.77
2022-10-24T04:28:31.342Z,7.79
2022-10-24T04:30:58.635Z,7.75
2022-10-24T04:33:26.246Z,7.74
2022-10-24T04:35:53.289Z,7.71
2022-10-24T04:38:20.489Z,7.64
2022-10-24T04:40:53.463Z,7.61
2022-10-24T04:43:21.957Z,7.55
2022-10-24T04:45:48.984Z,7.51
2022-10-24T04:48:16.872Z,7.61
2022-10-24T04:50:45.035Z,7.59
2022-10-24T04:53:12.722Z,7.59
2022-10-24T04:55:39.737Z,7.62
2022-10-24T04:58:06.834Z,7.59
2022-10-24T05:00:34.002Z,7.52
2022-10-24T05:03:00.937Z,7.60
2022-10-24T05:05:27.968Z,7.53
2022-10-24T05:07:54.978Z,7.61
2022-10-24T05:10:21.844Z,7.57
2022-10-24T05:12:48.931Z,7.57
2022-10-24T05:15:16.062Z,7.72
2022-10-24T05:17:42.872Z,7.77
2022-10-24T05:20:10.827Z,7.87
2022-10-24T05:22:38.082Z,7.88
2022-10-24T05:25:05.866Z,7.93
2022-10-24T05:27:32.846Z,7.95
2022-10-24T05:30:00.099Z,8.05
2022-10-24T05:32:27.006Z,8.08
2022-10-24T05:34:53.935Z,8.13
2022-10-24T05:37:20.830Z,8.23
2022-10-24T05:39:47.945Z,8.35
2022-10-24T05:42:15.584Z,8.41
2022-10-24T05:44:42.650Z,8.49
2022-10-24T05:47:09.542Z,8.55
2022-10-24T05:49:36.917Z,8.59
2022-10-24T05:52:04.182Z,8.75
2022-10-24T05:54:42.422Z,8.97
2022-10-24T05:57:18.111Z,9.07
2022-10-24T05:59:45.007Z,9.18
2022-10-24T06:02:21.811Z,9.17
2022-10-24T06:04:50.683Z,9.32
2022-10-24T06:07:19.022Z,9.48
2022-10-24T06:09:49.150Z,9.63
2022-10-24T06:12:16.274Z,9.78
2022-10-24T06:14:44.671Z,10.02
2022-10-24T06:17:12.254Z,10.14
2022-10-24T06:19:40.285Z,10.21
2022-10-24T06:22:08.584Z,10.40
2022-10-24T06:24:37.081Z,10.49
2022-10-24T06:27:05.795Z,10.66
2022-10-24T06:29:33.028Z,10.80
2022-10-24T06:31:59.976Z,10.95
2022-10-24T06:34:27.165Z,11.14
2022-10-24T06:36:54.612Z,11.32
2022-10-24T06:39:21.933Z,11.41
2022-10-24T06:41:48.973Z,11.42
2022-10-24T06:44:16.956Z,11.66
2022-10-24T06:46:44.850Z,11.84
2022-10-24T06:49:13.660Z,11.92
2022-10-24T06:51:41.194Z,12.17
2022-10-24T06:54:08.759Z,12.30
2022-10-24T06:56:35.766Z,12.40
2022-10-24T06:59:02.511Z,12.61
2022-10-24T07:01:31.715Z,12.77
2022-10-24T07:03:58.727Z,12.91
2022-10-24T07:06:28.873Z,13.02
2022-10-24T07:08:59.545Z,13.14
2022-10-24T07:11:27.011Z,13.35
2022-10-24T07:13:57.931Z,13.52
2022-10-24T07:16:30.048Z,13.65
2022-10-24T07:18:57.079Z,13.81
2022-10-24T07:21:26.671Z,13.94
2022-10-24T07:23:54.799Z,14.11
2022-10-24T07:26:23.625Z,14.29
2022-10-24T07:28:54.768Z,14.40
2022-10-24T07:31:24.136Z,14.55
2022-10-24T07:33:52.956Z,14.79
2022-10-24T07:36:22.870Z,14.90
2022-10-24T07:38:52.621Z,15.08
2022-10-24T07:41:19.665Z,15.26
2022-10-24T07:43:47.156Z,15.44
2022-10-24T07:46:17.084Z,15.58
2022-10-24T07:48:44.357Z,15.75
2022-10-24T07:51:13.716Z,15.85
2022-10-24T07:53:41.993Z,16.00
2022-10-24T07:56:14.545Z,16.12
2022-10-24T07:58:43.627Z,16.28
2022-10-24T08:01:15.364Z,16.37
2022-10-24T08:03:42.611Z,16.51
2022-10-24T08:06:13.706Z,16.62
2022-10-24T08:08:41.006Z,16.73
2022-10-24T08:11:10.671Z,16.86
2022-10-24T08:13:38.797Z,16.94
2022-10-24T08:16:11.204Z,17.00
2022-10-24T08:18:39.969Z,17.16
2022-10-24T08:21:10.322Z,17.25
2022-10-24T08:23:40.121Z,17.37
2022-10-24T08:26:08.666Z,17.52
2022-10-24T08:28:36.787Z,17.63
2022-10-24T08:31:06.956Z,17.75
2022-10-24T08:33:35.395Z,17.82
2022-10-24T08:36:06.155Z,17.87
2022-10-24T08:38:33.461Z,17.93
2022-10-24T08:41:01.297Z,18.05
2022-10-24T08:43:28.336Z,18.17
2022-10-24T08:46:00.891Z,18.31
2022-10-24T08:48:34.857Z,18.39
2022-10-24T08:51:27.763Z,18.48
2022-10-24T08:54:01.301Z,18.62
2022-10-24T08:56:32.305Z,18.78
2022-10-24T08:59:03.527Z,18.90
2022-10-24T09:01:43.168Z,18.97
2022-10-24T09:04:14.885Z,19.09
2022-10-24T09:06:42.834Z,19.30
2022-10-24T09:09:23.486Z,19.36
2022-10-24T09:11:56.239Z,19.48
2022-10-24T09:14:36.901Z,19.57
2022-10-24T09:20:26.742Z,19.71
2022-10-24T09:22:59.920Z,19.69
2022-10-24T09:25:35.140Z,19.82
2022-10-24T09:28:06.087Z,19.90
2022-10-24T09:30:36.900Z,19.99
2022-10-24T09:33:28.338Z,20.10
2022-10-24T09:36:01.629Z,20.18
2022-10-24T09:38:33.918Z,20.35
2022-10-24T09:41:26.662Z,20.35
2022-10-24T09:43:56.850Z,20.31
2022-10-24T09:46:39.029Z,20.39
2022-10-24T09:49:22.926Z,20.45
2022-10-24T09:52:07.097Z,20.53
2022-10-24T09:54:36.487Z,20.41
2022-10-24T09:57:12.963Z,20.53
2022-10-24T09:59:46.479Z,20.60
2022-10-24T10:02:14.765Z,20.77
2022-10-24T10:04:42.819Z,20.80
2022-10-24T10:07:13.008Z,20.85
2022-10-24T10:09:55.624Z,20.86
2022-10-24T10:12:38.059Z,20.97
2022-10-24T10:15:18.517Z,21.00
2022-10-24T10:17:55.427Z,21.09
2022-10-24T10:20:31.607Z,21.16
2022-10-24T10:23:33.711Z,21.28
2022-10-24T10:26:42.056Z,21.25
2022-10-24T10:29:18.692Z,21.35
2022-10-24T10:31:51.164Z,21.36
2022-10-24T10:34:41.096Z,21.49
2022-10-24T10:37:29.371Z,21.50
2022-10-24T10:40:15.557Z,21.46
2022-10-24T10:43:06.026Z,21.43
2022-10-24T10:45:54.970Z,21.58
2022-10-24T10:48:39.954Z,21.64
2022-10-24T10:51:36.107Z,21.69
2022-10-24T10:54:19.380Z,21.63
2022-10-24T10:56:55.799Z,21.64
2022-10-24T10:59:32.230Z,21.67
2022-10-24T11:02:14.620Z,21.54
2022-10-24T11:04:51.918Z,21.78
2022-10-24T11:07:45.314Z,21.84
2022-10-24T11:10:19.110Z,21.89
2022-10-24T11:12:46.926Z,21.95
2022-10-24T11:15:28.441Z,21.91
2022-10-24T11:18:02.535Z,21.99
2022-10-24T11:20:45.681Z,21.99
2022-10-24T11:23:20.515Z,22.00
2022-10-24T11:26:03.393Z,22.04
2022-10-24T11:28:53.047Z,21.98
2022-10-24T11:31:29.131Z,22.18
2022-10-24T11:34:06.163Z,22.17
2022-10-24T11:36:53.427Z,22.23
2022-10-24T11:39:35.424Z,22.22
2022-10-24T11:42:19.806Z,22.21
2022-10-24T11:45:04.750Z,22.34
2022-10-24T11:47:50.034Z,22.32
2022-10-24T11:50:34.992Z,22.41
2022-10-24T11:53:31.220Z,22.57
2022-10-24T11:56:15.870Z,22.58
2022-10-24T11:59:07.487Z,22.60
2022-10-24T12:01:40.876Z,22.47
2022-10-24T12:04:13.930Z,22.46
2022-10-24T12:06:55.918Z,22.58
2022-10-24T12:09:36.355Z,22.56
2022-10-24T12:12:37.912Z,22.64
2022-10-24T12:15:15.340Z,22.68
2022-10-24T12:17:49.322Z,22.69
2022-10-24T12:20:24.400Z,22.70
2022-10-24T12:22:53.367Z,22.80
2022-10-24T12:25:35.658Z,22.92
2022-10-24T12:28:05.921Z,22.82
2022-10-24T12:30:36.055Z,22.79
2022-10-24T12:33:12.884Z,22.82
2022-10-24T12:35:49.213Z,22.72
2022-10-24T12:38:28.543Z,22.69
2022-10-24T12:41:21.581Z,22.70
2022-10-24T12:43:49.607Z,22.75
2022-10-24T12:46:28.703Z,22.74
2022-10-24T12:48:59.377Z,22.81
2022-10-24T12:51:33.241Z,22.83
2022-10-24T12:54:17.379Z,22.75
2022-10-24T12:56:54.207Z,22.69
2022-10-24T12:59:30.376Z,22.66
2022-10-24T13:02:16.051Z,22.56
2022-10-24T13:05:04.628Z,22.53
2022-10-24T13:07:41.573Z,22.68
2022-10-24T13:10:37.982Z,22.67
2022-10-24T13:13:27.120Z,22.70
2022-10-24T13:16:03.162Z,22.68
2022-10-24T13:18:56.849Z,22.66
2022-10-24T13:24:17.671Z,22.67
2022-10-24T13:26:53.749Z,22.47
2022-10-24T13:29:23.750Z,22.58
2022-10-24T13:32:19.946Z,22.52
2022-10-24T13:34:51.086Z,22.33
2022-10-24T13:37:45.231Z,22.32
2022-10-24T13:40:21.895Z,22.32
2022-10-24T13:42:54.579Z,22.38
2022-10-24T13:45:44.936Z,22.44
2022-10-24T13:48:28.774Z,22.27
2022-10-24T13:51:04.949Z,22.30
2022-10-24T13:53:42.253Z,22.21
2022-10-24T13:56:11.342Z,22.16
2022-10-24T13:58:44.349Z,22.19
2022-10-24T14:01:19.426Z,22.08
2022-10-24T14:03:48.143Z,22.04
2022-10-24T14:06:15.682Z,21.95
2022-10-24T14:08:53.404Z,21.88
2022-10-24T14:11:31.471Z,21.86
2022-10-24T14:14:04.295Z,21.85
2022-10-24T14:16:36.012Z,21.82
2022-10-24T14:19:27.095Z,21.80
2022-10-24T14:21:58.384Z,21.74
2022-10-24T14:24:26.021Z,21.72
2022-10-24T14:26:56.892Z,21.70
2022-10-24T14:29:27.972Z,21.66
2022-10-24T14:32:10.047Z,21.59
2022-10-24T14:34:39.385Z,21.55
2022-10-24T14:37:17.141Z,21.48
2022-10-24T14:39:45.080Z,21.47
2022-10-24T14:42:16.959Z,21.44
2022-10-24T14:44:46.582Z,21.39
2022-10-24T14:47:32.885Z,21.33
2022-10-24T14:50:00.712Z,21.22
2022-10-24T14:52:37.289Z,21.19
2022-10-24T14:55:13.930Z,21.11
2022-10-24T14:57:49.258Z,20.97
2022-10-24T15:00:22.608Z,20.83
2022-10-24T15:02:53.741Z,20.71
2022-10-24T15:05:20.967Z,20.56
2022-10-24T15:08:22.028Z,20.40
2022-10-24T15:10:48.842Z,20.18
2022-10-24T15:13:17.679Z,20.10
2022-10-24T15:15:45.815Z,20.00
2022-10-24T15:18:21.137Z,19.88
2022-10-24T15:20:51.146Z,19.72
2022-10-24T15:23:31.460Z,19.60
2022-10-24T15:26:07.980Z,19.41
2022-10-24T15:28:36.854Z,19.31
2022-10-24T15:31:04.082Z,19.21
2022-10-24T15:33:32.416Z,19.09
2022-10-24T15:35:59.733Z,19.01
2022-10-24T15:38:26.784Z,18.89
2022-10-24T15:40:53.968Z,18.77
2022-10-24T15:43:21.330Z,18.70
2022-10-24T15:45:48.357Z,18.60
2022-10-24T15:48:15.540Z,18.46
2022-10-24T15:50:46.210Z,18.39
2022-10-24T15:53:20.649Z,18.29
2022-10-24T15:55:48.304Z,18.21
2022-10-24T15:58:17.294Z,18.17
2022-10-24T16:00:44.588Z,18.10
2022-10-24T16:03:15.688Z,18.03
2022-10-24T16:05:47.347Z,17.93
2022-10-24T16:08:16.327Z,17.80
2022-10-24T16:10:43.697Z,17.79
2022-10-24T16:13:14.713Z,17.67
2022-10-24T16:15:43.528Z,17.59
2022-10-24T16:18:11.982Z,17.46
2022-10-24T16:20:39.493Z,17.40
2022-10-24T16:23:07.621Z,17.37
2022-10-24T16:25:38.225Z,17.31
2022-10-24T16:28:07.965Z,17.22
2022-10-24T16:30:37.523Z,17.16
2022-10-24T16:33:04.923Z,17.12
2022-10-24T16:35:34.655Z,17.06
2022-10-24T16:38:04.101Z,16.94
2022-10-24T16:40:31.510Z,16.92
2022-10-24T16:43:00.459Z,16.82
2022-10-24T16:45:27.473Z,16.78
2022-10-24T16:47:54.647Z,16.60
2022-10-24T16:50:26.215Z,16.62
2022-10-24T16:53:02.787Z,16.55
2022-10-24T16:55:31.273Z,16.50
2022-10-24T16:57:59.330Z,16.46
2022-10-24T17:00:28.457Z,16.38
2022-10-24T17:02:58.235Z,16.27
2022-10-24T17:05:27.419Z,16.23
2022-10-24T17:07:55.532Z,16.23
2022-10-24T17:10:24.795Z,16.18
2022-10-24T17:12:52.731Z,16.14
2022-10-24T17:15:25.100Z,16.06
2022-10-24T17:17:52.225Z,15.93
2022-10-24T17:20:19.386Z,15.95
2022-10-24T17:22:47.025Z,15.88
2022-10-24T17:25:21.741Z,15.74
2022-10-24T17:27:49.618Z,15.69
2022-10-24T17:30:21.400Z,15.62
2022-10-24T17:32:49.186Z,15.61
2022-10-24T17:35:18.829Z,15.49
2022-10-24T17:37:52.458Z,15.53
2022-10-24T17:40:23.169Z,15.46
2022-10-24T17:42:50.360Z,15.37
2022-10-24T17:45:23.089Z,15.06
2022-10-24T17:47:50.317Z,15.33
2022-10-24T17:50:18.480Z,15.27
2022-10-24T17:52:50.985Z,15.21
2022-10-24T17:58:11.402Z,15.10
2022-10-24T18:00:39.228Z,15.04
2022-10-24T18:03:08.690Z,15.01
2022-10-24T18:05:38.324Z,14.95
2022-10-24T18:08:07.786Z,14.97
2022-10-24T18:10:37.483Z,14.77
2022-10-24T18:13:04.842Z,14.83
2022-10-24T18:15:31.914Z,14.75
2022-10-24T18:17:59.089Z,14.68
2022-10-24T18:20:26.184Z,14.66
2022-10-24T18:22:53.343Z,14.69
2022-10-24T18:25:22.912Z,14.56
2022-10-24T18:27:52.210Z,14.56
2022-10-24T18:30:22.818Z,14.49
2022-10-24T18:32:50.335Z,14.36
2022-10-24T18:35:20.819Z,14.36
2022-10-24T18:37:48.973Z,14.34
2022-10-24T18:40:17.096Z,14.31
2022-10-24T18:43:04.288Z,14.35
2022-10-24T18:45:32.764Z,14.25
2022-10-24T18:48:00.232Z,14.20
2022-10-24T18:50:29.462Z,14.18
2022-10-24T18:53:04.990Z,14.16
2022-10-24T18:55:33.817Z,14.11
2022-10-24T18:58:01.320Z,14.01
2022-10-24T19:00:30.949Z,13.95
2022-10-24T19:03:40.140Z,13.85
2022-10-24T19:06:26.739Z,13.80
2022-10-24T19:08:54.400Z,13.78
2022-10-24T19:11:23.482Z,13.69
2022-10-24T19:13:50.638Z,13.62
2022-10-24T19:16:22.098Z,13.46
2022-10-24T19:18:54.955Z,13.45
2022-10-24T19:21:22.270Z,13.27
2022-10-24T19:23:50.896Z,13.33
2022-10-24T19:26:18.236Z,13.34
2022-10-24T19:28:45.304Z,13.25
2022-10-24T19:31:13.514Z,13.23
2022-10-24T19:33:52.896Z,13.22
2022-10-24T19:36:20.137Z,13.14
2022-10-24T19:38:47.329Z,13.10
2022-10-24T19:41:14.547Z,13.05
2022-10-24T19:43:41.475Z,13.07
2022-10-24T19:46:19.329Z,13.06
2022-10-24T19:48:53.329Z,13.08
2022-10-24T19:51:20.513Z,13.04
2022-10-24T19:53:49.661Z,12.94
2022-10-24T19:56:25.575Z,12.98
2022-10-24T19:58:55.973Z,12.87
2022-10-24T20:01:25.786Z,12.85
2022-10-24T20:03:55.151Z,12.89
2022-10-24T20:06:24.355Z,12.86
2022-10-24T20:08:51.393Z,12.74
2022-10-24T20:11:20.949Z,12.73
2022-10-24T20:13:50.567Z,12.63
2022-10-24T20:16:18.391Z,12.68
2022-10-24T20:18:45.912Z,12.66
2022-10-24T20:21:16.273Z,12.67
2022-10-24T20:23:43.676Z,12.62
2022-10-24T20:26:14.427Z,12.63
2022-10-24T20:28:43.811Z,12.62
2022-10-24T20:31:21.945Z,12.61
2022-10-24T20:33:49.842Z,12.60
2022-10-24T20:36:17.182Z,12.58
2022-10-24T20:38:44.624Z,12.57
2022-10-24T20:41:11.567Z,12.65
2022-10-24T20:43:38.715Z,12.61
2022-10-24T20:46:06.662Z,12.55
2022-10-24T20:48:34.726Z,12.53
2022-10-24T20:51:06.356Z,12.31
2022-10-24T20:53:42.784Z,12.33
2022-10-24T20:56:15.583Z,12.41
2022-10-24T20:58:44.084Z,12.42
2022-10-24T21:01:14.089Z,12.34
2022-10-24T21:03:41.377Z,12.35
2022-10-24T21:06:28.606Z,12.36
2022-10-24T21:08:58.400Z,12.28
2022-10-24T21:11:28.022Z,12.25
2022-10-24T21:13:59.578Z,12.18
2022-10-24T21:16:27.876Z,12.15
2022-10-24T21:18:55.132Z,12.14
2022-10-24T21:21:23.021Z,12.12
2022-10-24T21:23:52.070Z,12.12
2022-10-24T21:26:19.879Z,12.13
2022-10-24T21:28:48.324Z,12.09
2022-10-24T21:31:17.848Z,12.05
2022-10-24T21:33:45.605Z,12.01
2022-10-24T21:36:15.096Z,11.96
2022-10-24T21:38:46.019Z,11.93
2022-10-24T21:41:13.025Z,11.78
2022-10-24T21:43:41.851Z,11.74
2022-10-24T21:46:10.809Z,11.15
2022-10-24T21:48:39.208Z,11.65
2022-10-24T21:51:10.727Z,11.54
2022-10-24T21:53:42.792Z,11.48
2022-10-24T21:56:12.839Z,11.43
2022-10-24T21:58:40.978Z,11.44
2022-10-24T22:01:13.243Z,11.37
2022-10-24T22:03:41.811Z,11.24
2022-10-24T22:06:12.161Z,11.25
2022-10-24T22:08:39.438Z,11.26
2022-10-24T22:11:11.615Z,11.24
2022-10-24T22:13:38.946Z,11.23
2022-10-24T22:16:07.713Z,11.19
2022-10-24T22:18:35.239Z,11.22
2022-10-24T22:21:04.001Z,11.27
2022-10-24T22:23:31.067Z,11.30
2022-10-24T22:25:58.942Z,11.31
2022-10-24T22:28:26.219Z,11.23
2022-10-24T22:30:53.588Z,11.24
2022-10-24T22:33:39.346Z,11.22
2022-10-24T22:36:13.688Z,11.26
2022-10-24T22:38:41.184Z,11.27
2022-10-24T22:41:12.289Z,11.26
2022-10-24T22:43:40.121Z,11.30
2022-10-24T22:46:22.297Z,11.29
2022-10-24T22:48:55.621Z,11.30
2022-10-24T22:51:23.152Z,11.29
2022-10-24T22:53:50.409Z,11.29
2022-10-24T22:56:27.753Z,11.30
2022-10-24T22:58:54.983Z,11.18
2022-10-24T23:01:36.431Z,11.18
2022-10-24T23:04:30.301Z,10.55
2022-10-24T23:07:16.515Z,11.07
2022-10-24T23:09:43.659Z,10.94
2022-10-24T23:12:14.630Z,10.95
2022-10-24T23:14:43.360Z,11.07
2022-10-24T23:17:14.171Z,11.03
2022-10-24T23:19:45.999Z,10.90
2022-10-24T23:22:26.666Z,10.84
2022-10-24T23:24:56.095Z,10.74
2022-10-24T23:27:25.442Z,10.75
2022-10-24T23:29:53.646Z,10.74
2022-10-24T23:32:23.268Z,10.76
2022-10-24T23:34:52.097Z,10.73
2022-10-24T23:37:28.979Z,10.75
2022-10-24T23:39:56.647Z,10.68
2022-10-24T23:42:24.114Z,10.63
2022-10-24T23:44:53.783Z,10.66
2022-10-24T23:47:52.032Z,10.66
2022-10-24T23:50:27.254Z,10.58
2022-10-24T23:53:00.793Z,10.59
2022-10-24T23:55:28.566Z,10.50
2022-10-24T23:57:55.492Z,10.47
